South Vienna, Ohio
Current Conditions -  °F | °C
As of 10:15 PM on Monday 26 Jan 2015 (Local Time) from KUYF Reporting Station
Scattered Clouds Scattered Clouds  
Wind Chill:   Ceiling: Unl
Heat Index:   Visibility: 7mi
Dew Point:   Wind: 3mph
Humidity: 92%   Direction: 280°W
Pressure: 29.93"   Gusts: NA
Location:  39.93°N, 83.61°W
Report Text: KUYF 270315Z AUTO 28003KT 7SM SCT090 M17/M18 A2993 RMK AO2
Loading
Personal Weather Stations






























Interactive Weather Map New forecast layout! Learn more

10-Day Weather Forecast

Advertisements
Track Severe Weather on mobile